createdAt,value
2018-08-08T00:00:27.282Z,42.80
2018-08-08T00:02:57.984Z,42.43
2018-08-08T00:05:29.299Z,42.43
2018-08-08T00:08:00.549Z,42.07
2018-08-08T00:10:32.095Z,42.47
2018-08-08T00:13:03.607Z,42.87
2018-08-08T00:15:34.608Z,42.73
2018-08-08T00:18:05.545Z,42.07
2018-08-08T00:20:35.838Z,42.43
2018-08-08T00:23:06.260Z,42.37
2018-08-08T00:25:36.797Z,42.63
2018-08-08T00:28:07.771Z,43.13
2018-08-08T00:30:38.375Z,42.27
2018-08-08T00:33:08.502Z,42.27
2018-08-08T00:35:38.610Z,42.43
2018-08-08T00:38:08.980Z,42.50
2018-08-08T00:40:40.062Z,43.40
2018-08-08T00:43:10.540Z,42.80
2018-08-08T00:45:40.909Z,42.53
2018-08-08T00:48:11.050Z,42.27
2018-08-08T00:50:41.464Z,42.37
2018-08-08T00:53:12.930Z,42.07
2018-08-08T00:55:43.226Z,43.67
2018-08-08T00:58:13.973Z,42.77
2018-08-08T01:00:44.556Z,43.30
2018-08-08T01:03:14.956Z,42.53
2018-08-08T01:05:45.121Z,42.03
2018-08-08T01:08:15.218Z,42.80
2018-08-08T01:10:45.403Z,42.97
2018-08-08T01:13:15.692Z,42.00
2018-08-08T01:15:46.416Z,41.73
2018-08-08T01:18:19.680Z,41.93
2018-08-08T01:20:53.151Z,42.47
2018-08-08T01:23:26.130Z,42.17
2018-08-08T01:25:56.482Z,41.83
2018-08-08T01:28:26.975Z,42.37
2018-08-08T01:30:57.396Z,42.20
2018-08-08T01:33:28.396Z,41.33
2018-08-08T01:36:01.035Z,42.33
2018-08-08T01:38:31.565Z,42.00
2018-08-08T01:41:01.911Z,41.60
2018-08-08T01:43:32.379Z,41.47
2018-08-08T01:46:02.742Z,41.43
2018-08-08T01:48:32.784Z,42.33
2018-08-08T01:51:03.341Z,41.43
2018-08-08T01:53:33.633Z,42.60
2018-08-08T01:56:03.880Z,41.33
2018-08-08T01:58:34.391Z,41.53
2018-08-08T02:01:04.617Z,41.80
2018-08-08T02:03:35.190Z,42.37
2018-08-08T02:06:05.994Z,41.87
2018-08-08T02:08:36.511Z,41.63
2018-08-08T02:11:06.895Z,41.63
2018-08-08T02:13:37.083Z,41.37
2018-08-08T02:16:07.631Z,42.07
2018-08-08T02:18:37.710Z,42.00
2018-08-08T02:21:08.106Z,41.67
2018-08-08T02:23:38.161Z,41.57
2018-08-08T02:26:08.491Z,41.63
2018-08-08T02:28:38.672Z,41.63
2018-08-08T02:31:09.046Z,42.43
2018-08-08T02:33:39.840Z,41.47
2018-08-08T02:36:09.925Z,41.77
2018-08-08T02:38:40.093Z,41.33
2018-08-08T02:41:10.871Z,41.53
2018-08-08T02:43:41.015Z,42.13
2018-08-08T02:46:11.308Z,42.27
2018-08-08T02:48:41.624Z,41.07
2018-08-08T02:51:11.946Z,41.37
2018-08-08T02:53:42.596Z,41.17
2018-08-08T02:56:13.269Z,41.40
2018-08-08T02:58:43.433Z,41.83
2018-08-08T03:01:13.390Z,46.60
2018-08-08T03:03:43.614Z,41.20
2018-08-08T03:06:14.093Z,40.50
2018-08-08T03:08:44.354Z,41.17
2018-08-08T03:11:15.574Z,41.30
2018-08-08T03:13:46.009Z,41.70
2018-08-08T03:16:16.683Z,39.93
2018-08-08T03:18:47.013Z,40.47
2018-08-08T03:21:17.859Z,40.27
2018-08-08T03:23:48.142Z,40.63
2018-08-08T03:26:18.507Z,41.83
2018-08-08T03:28:49.036Z,41.07
2018-08-08T03:31:19.042Z,40.80
2018-08-08T03:33:49.274Z,40.70
2018-08-08T03:36:19.475Z,40.77
2018-08-08T03:38:50.043Z,41.17
2018-08-08T03:41:21.941Z,41.70
2018-08-08T03:43:52.990Z,40.80
2018-08-08T03:46:23.185Z,40.70
2018-08-08T03:48:53.376Z,41.00
2018-08-08T03:51:23.764Z,40.50
2018-08-08T03:53:53.946Z,41.07
2018-08-08T03:56:24.751Z,41.00
2018-08-08T03:58:54.999Z,40.43
2018-08-08T04:01:25.163Z,40.50
2018-08-08T04:03:56.581Z,40.63
2018-08-08T04:06:27.172Z,40.47
2018-08-08T04:08:57.320Z,41.70
2018-08-08T04:11:27.746Z,40.57
2018-08-08T04:13:59.666Z,41.13
2018-08-08T04:16:29.740Z,41.00
2018-08-08T04:18:59.749Z,41.13
2018-08-08T04:21:30.562Z,41.53
2018-08-08T04:24:02.231Z,40.97
2018-08-08T04:26:32.596Z,40.40
2018-08-08T04:29:02.977Z,40.97
2018-08-08T04:31:33.150Z,40.83
2018-08-08T04:34:03.142Z,41.30
2018-08-08T04:36:33.768Z,41.40
2018-08-08T04:39:04.290Z,41.20
2018-08-08T04:41:34.450Z,40.63
2018-08-08T04:44:04.663Z,41.17
2018-08-08T04:46:35.288Z,40.90
2018-08-08T04:49:05.736Z,41.53
2018-08-08T04:51:35.887Z,41.33
2018-08-08T04:54:06.041Z,41.57
2018-08-08T04:56:36.376Z,40.33
2018-08-08T04:59:06.419Z,40.47
2018-08-08T05:01:37.665Z,41.13
2018-08-08T05:04:07.835Z,41.40
2018-08-08T05:06:38.289Z,40.77
2018-08-08T05:09:12.274Z,40.57
2018-08-08T05:11:42.682Z,40.23
2018-08-08T05:14:13.117Z,40.63
2018-08-08T05:16:43.641Z,41.67
2018-08-08T05:19:13.853Z,40.70
2018-08-08T05:21:44.557Z,40.77
2018-08-08T05:24:14.754Z,41.13
2018-08-08T05:26:45.183Z,40.27
2018-08-08T05:29:15.424Z,40.63
2018-08-08T05:31:45.788Z,41.27
2018-08-08T05:34:17.492Z,40.87
2018-08-08T05:36:48.437Z,40.47
2018-08-08T05:39:18.829Z,40.53
2018-08-08T05:41:49.077Z,40.27
2018-08-08T05:44:19.488Z,40.90
2018-08-08T05:46:50.357Z,40.50
2018-08-08T05:49:21.212Z,40.30
2018-08-08T05:51:51.449Z,41.13
2018-08-08T05:54:21.702Z,40.80
2018-08-08T05:56:52.144Z,41.40
2018-08-08T05:59:22.665Z,41.83
2018-08-08T06:01:53.828Z,41.13
2018-08-08T06:04:24.343Z,41.63
2018-08-08T06:06:55.417Z,40.43
2018-08-08T06:09:25.391Z,41.40
2018-08-08T06:11:55.634Z,41.53
2018-08-08T06:14:26.009Z,42.10
2018-08-08T06:16:56.168Z,41.20
2018-08-08T06:19:26.328Z,41.07
2018-08-08T06:21:56.488Z,41.70
2018-08-08T06:24:26.467Z,41.47
2018-08-08T06:26:56.557Z,41.00
2018-08-08T06:32:10.371Z,40.77
2018-08-08T06:34:41.621Z,41.83
2018-08-08T06:37:12.274Z,41.00
2018-08-08T06:39:43.370Z,41.53
2018-08-08T06:42:13.772Z,41.30
2018-08-08T06:44:44.113Z,41.53
2018-08-08T06:47:15.290Z,41.43
2018-08-08T06:49:45.406Z,41.90
2018-08-08T06:52:16.362Z,42.57
2018-08-08T06:54:46.450Z,42.87
2018-08-08T06:57:16.694Z,42.03
2018-08-08T06:59:46.831Z,41.70
2018-08-08T07:02:17.341Z,42.97
2018-08-08T07:04:47.600Z,42.93
2018-08-08T07:07:17.861Z,43.10
2018-08-08T07:09:48.173Z,42.00
2018-08-08T07:12:18.846Z,42.63
2018-08-08T07:14:49.146Z,42.53
2018-08-08T07:17:19.347Z,42.10
2018-08-08T07:19:49.464Z,42.57
2018-08-08T07:22:19.762Z,43.40
2018-08-08T07:24:50.231Z,42.30
2018-08-08T07:27:20.524Z,42.47
2018-08-08T07:29:51.046Z,42.17
2018-08-08T07:32:21.401Z,43.03
2018-08-08T07:34:51.596Z,42.90
2018-08-08T07:37:21.781Z,42.73
2018-08-08T07:39:52.094Z,41.93
2018-08-08T07:42:22.149Z,42.43
2018-08-08T07:44:52.398Z,41.80
2018-08-08T07:47:22.653Z,43.33
2018-08-08T07:49:53.174Z,43.13
2018-08-08T07:52:24.277Z,41.97
2018-08-08T07:54:55.153Z,42.73
2018-08-08T07:57:25.920Z,42.83
2018-08-08T07:59:56.625Z,42.40
2018-08-08T08:02:27.599Z,42.67
2018-08-08T08:04:58.737Z,41.67
2018-08-08T08:07:29.981Z,41.93
2018-08-08T08:10:02.976Z,41.67
2018-08-08T08:12:33.639Z,41.97
2018-08-08T08:15:04.983Z,42.57
2018-08-08T08:17:42.496Z,42.93
2018-08-08T08:20:13.922Z,42.77
2018-08-08T08:22:45.196Z,43.23
2018-08-08T08:25:15.848Z,41.80
2018-08-08T08:27:46.280Z,42.13
2018-08-08T08:30:17.718Z,42.10
2018-08-08T08:32:48.689Z,41.80
2018-08-08T08:35:20.346Z,41.40
2018-08-08T08:37:51.587Z,40.77
2018-08-08T08:40:23.016Z,42.30
2018-08-08T08:43:00.347Z,41.77
2018-08-08T08:45:32.155Z,41.00
2018-08-08T08:48:02.824Z,41.07
2018-08-08T08:50:33.157Z,41.13
2018-08-08T08:53:03.901Z,42.10
2018-08-08T08:55:38.576Z,41.57
2018-08-08T08:58:08.910Z,41.17
2018-08-08T09:00:39.383Z,41.43
2018-08-08T09:03:10.277Z,41.73
2018-08-08T09:05:41.051Z,42.63
2018-08-08T09:08:11.505Z,41.80
2018-08-08T09:10:42.842Z,41.40
2018-08-08T09:13:13.578Z,41.37
2018-08-08T09:15:45.253Z,40.97
2018-08-08T09:18:15.678Z,41.77
2018-08-08T09:20:47.083Z,41.67
2018-08-08T09:23:18.687Z,41.67
2018-08-08T09:25:48.988Z,41.33
2018-08-08T09:28:20.890Z,41.27
2018-08-08T09:30:51.619Z,41.63
2018-08-08T09:33:27.199Z,42.37
2018-08-08T09:35:57.600Z,41.83
2018-08-08T09:38:28.403Z,41.90
2018-08-08T09:40:58.917Z,41.00
2018-08-08T09:43:29.323Z,41.47
2018-08-08T09:45:59.769Z,42.70
2018-08-08T09:48:34.883Z,41.53
2018-08-08T09:51:06.149Z,42.17
2018-08-08T09:53:41.429Z,41.83
2018-08-08T09:56:12.840Z,42.20
2018-08-08T09:58:43.578Z,42.07
2018-08-08T10:01:20.950Z,41.60
2018-08-08T10:03:56.716Z,41.33
2018-08-08T10:06:28.473Z,41.37
2018-08-08T10:08:59.638Z,42.20
2018-08-08T10:11:29.985Z,41.47
2018-08-08T10:14:01.045Z,42.03
2018-08-08T10:16:32.315Z,41.30
2018-08-08T10:19:02.508Z,41.13
2018-08-08T10:21:33.553Z,41.67
2018-08-08T10:24:03.805Z,42.23
2018-08-08T10:26:34.012Z,41.63
2018-08-08T10:29:05.447Z,41.43
2018-08-08T10:31:36.511Z,42.40
2018-08-08T10:34:06.810Z,42.67
2018-08-08T10:36:38.367Z,42.70
2018-08-08T10:39:14.318Z,42.27
2018-08-08T10:41:44.471Z,42.67
2018-08-08T10:44:17.925Z,42.40
2018-08-08T10:46:49.358Z,42.87
2018-08-08T10:49:20.722Z,42.30
2018-08-08T10:51:51.177Z,41.37
2018-08-08T10:54:24.732Z,41.60
2018-08-08T10:56:55.431Z,41.97
2018-08-08T10:59:25.627Z,42.00
2018-08-08T11:01:56.167Z,42.33
2018-08-08T11:04:26.686Z,42.00
2018-08-08T11:06:57.190Z,41.47
2018-08-08T11:09:28.654Z,42.17
2018-08-08T11:12:00.521Z,41.70
2018-08-08T11:14:31.848Z,42.13
2018-08-08T11:17:03.021Z,41.97
2018-08-08T11:19:34.623Z,41.50
2018-08-08T11:22:06.017Z,42.73
2018-08-08T11:24:37.098Z,42.20
2018-08-08T11:27:07.569Z,42.10
2018-08-08T11:29:38.531Z,42.93
2018-08-08T11:32:09.238Z,42.23
2018-08-08T11:34:42.946Z,41.90
2018-08-08T11:37:14.175Z,42.17
2018-08-08T11:39:45.445Z,41.90
2018-08-08T11:42:15.827Z,42.07
2018-08-08T11:44:46.653Z,42.30
2018-08-08T11:47:18.280Z,42.07
2018-08-08T11:49:49.226Z,42.40
2018-08-08T11:52:19.959Z,42.73
2018-08-08T11:54:50.176Z,43.43
2018-08-08T11:57:21.526Z,42.47
2018-08-08T11:59:52.858Z,42.20
2018-08-08T12:02:25.901Z,42.83
2018-08-08T12:04:58.132Z,42.80
2018-08-08T12:07:29.689Z,42.93
2018-08-08T12:10:00.873Z,42.40
2018-08-08T12:12:31.726Z,42.97
2018-08-08T12:15:03.989Z,41.97
2018-08-08T12:17:34.621Z,43.43
2018-08-08T12:20:05.914Z,44.50
2018-08-08T12:22:36.216Z,43.10
2018-08-08T12:25:07.557Z,42.70
2018-08-08T12:27:39.207Z,42.53
2018-08-08T12:30:11.255Z,43.97
2018-08-08T12:32:41.973Z,44.43
2018-08-08T12:35:12.976Z,43.10
2018-08-08T12:37:45.449Z,42.23
2018-08-08T12:40:16.634Z,42.67
2018-08-08T12:42:47.172Z,42.87
2018-08-08T12:45:21.404Z,43.43
2018-08-08T12:47:51.798Z,43.07
2018-08-08T12:50:22.435Z,42.50
2018-08-08T12:52:52.919Z,43.00
2018-08-08T12:55:24.571Z,42.77
2018-08-08T12:57:55.203Z,42.80
2018-08-08T13:00:27.784Z,42.33
2018-08-08T13:03:01.179Z,42.50
2018-08-08T13:05:33.633Z,42.47
2018-08-08T13:08:03.857Z,42.40
2018-08-08T13:10:43.331Z,42.17
2018-08-08T13:13:14.338Z,42.37
2018-08-08T13:15:45.006Z,42.40
2018-08-08T13:18:15.692Z,42.37
2018-08-08T13:20:46.531Z,42.70
2018-08-08T13:23:18.407Z,42.90
2018-08-08T13:25:49.439Z,43.00
2018-08-08T13:28:19.694Z,42.97
2018-08-08T13:30:51.321Z,42.07
2018-08-08T13:33:22.452Z,42.73
2018-08-08T13:35:52.679Z,43.03
2018-08-08T13:38:25.773Z,42.73
2018-08-08T13:40:57.123Z,42.03
2018-08-08T13:43:27.344Z,42.53
2018-08-08T13:45:57.673Z,42.27
2018-08-08T13:48:29.320Z,42.77
2018-08-08T13:50:59.994Z,43.17
2018-08-08T13:53:30.582Z,42.57
2018-08-08T13:56:01.188Z,42.77
2018-08-08T13:58:31.866Z,42.80
2018-08-08T14:01:03.210Z,43.27
2018-08-08T14:03:34.891Z,43.57
2018-08-08T14:06:05.385Z,43.77
2018-08-08T14:08:35.269Z,43.70
2018-08-08T14:11:06.547Z,43.60
2018-08-08T14:13:37.309Z,43.17
2018-08-08T14:16:09.449Z,43.07
2018-08-08T14:18:41.114Z,44.07
2018-08-08T14:21:12.024Z,43.37
2018-08-08T14:23:45.030Z,43.60
2018-08-08T14:26:15.160Z,44.93
2018-08-08T14:28:46.244Z,44.17
2018-08-08T14:31:17.963Z,44.53
2018-08-08T14:33:49.095Z,43.63
2018-08-08T14:36:20.785Z,43.77
2018-08-08T14:38:51.272Z,44.53
2018-08-08T14:41:22.684Z,44.17
2018-08-08T14:43:54.792Z,44.23
2018-08-08T14:46:25.783Z,44.23
2018-08-08T14:48:57.434Z,44.43
2018-08-08T14:51:30.083Z,44.30
2018-08-08T14:54:01.074Z,44.30
2018-08-08T14:56:31.231Z,44.90
2018-08-08T14:59:01.918Z,44.27
2018-08-08T15:01:34.778Z,44.10
2018-08-08T15:04:07.345Z,44.20
2018-08-08T15:06:38.245Z,43.40
2018-08-08T15:09:13.341Z,43.87
2018-08-08T15:11:44.163Z,42.80
2018-08-08T15:14:14.961Z,42.70
2018-08-08T15:16:45.471Z,42.67
2018-08-08T15:19:15.975Z,42.17
2018-08-08T15:21:50.401Z,42.20
2018-08-08T15:24:21.727Z,42.93
2018-08-08T15:26:51.789Z,41.97
2018-08-08T15:29:22.475Z,41.90
2018-08-08T15:31:55.591Z,42.07
2018-08-08T15:34:25.916Z,42.47
2018-08-08T15:36:56.477Z,42.63
2018-08-08T15:39:27.888Z,42.37
2018-08-08T15:41:59.027Z,41.57
2018-08-08T15:44:29.321Z,42.30
2018-08-08T15:46:59.948Z,40.50
2018-08-08T15:49:30.616Z,41.20
2018-08-08T15:52:01.152Z,41.37
2018-08-08T15:54:32.037Z,41.73
2018-08-08T15:57:02.214Z,42.27
2018-08-08T15:59:33.177Z,42.67
2018-08-08T16:02:03.334Z,41.80
2018-08-08T16:04:34.262Z,42.53
2018-08-08T16:07:04.600Z,42.13
2018-08-08T16:09:35.272Z,42.63
2018-08-08T16:12:07.402Z,42.50
2018-08-08T16:14:38.868Z,43.33
2018-08-08T16:17:09.069Z,43.40
2018-08-08T16:19:39.482Z,43.23
2018-08-08T16:22:09.906Z,42.83
2018-08-08T16:24:40.150Z,43.73
2018-08-08T16:27:11.292Z,42.70
2018-08-08T16:33:23.127Z,42.30
2018-08-08T16:35:54.304Z,42.60
2018-08-08T16:38:24.381Z,42.23
2018-08-08T16:40:55.089Z,42.10
2018-08-08T16:43:25.264Z,43.10
2018-08-08T16:45:56.800Z,42.57
2018-08-08T16:48:27.611Z,41.60
2018-08-08T16:50:58.472Z,42.53
2018-08-08T16:53:29.096Z,43.60
2018-08-08T16:56:00.366Z,43.03
2018-08-08T16:58:30.469Z,44.73
2018-08-08T17:01:01.022Z,43.70
2018-08-08T17:03:32.742Z,43.60
2018-08-08T17:06:03.007Z,42.77
2018-08-08T17:08:34.606Z,44.00
2018-08-08T17:11:05.845Z,43.90
2018-08-08T17:13:35.813Z,44.43
2018-08-08T17:16:07.900Z,45.27
2018-08-08T17:18:38.751Z,43.43
2018-08-08T17:21:09.488Z,43.17
2018-08-08T17:23:40.253Z,43.37
2018-08-08T17:26:21.265Z,44.17
2018-08-08T17:28:52.955Z,43.60
2018-08-08T17:31:23.139Z,43.33
2018-08-08T17:33:54.602Z,45.23
2018-08-08T17:36:25.031Z,44.43
2018-08-08T17:38:55.894Z,44.40
2018-08-08T17:41:28.742Z,43.97
2018-08-08T17:44:01.506Z,43.17
2018-08-08T17:46:31.439Z,43.97
2018-08-08T17:49:02.853Z,43.67
2018-08-08T17:51:34.475Z,44.00
2018-08-08T17:54:07.307Z,43.17
2018-08-08T17:56:39.869Z,43.87
2018-08-08T17:59:14.337Z,43.13
2018-08-08T18:01:45.427Z,43.97
2018-08-08T18:04:17.109Z,43.13
2018-08-08T18:06:47.616Z,42.97
2018-08-08T18:09:18.923Z,42.63
2018-08-08T18:11:54.652Z,42.97
2018-08-08T18:14:26.117Z,44.03
2018-08-08T18:16:56.234Z,43.80
2018-08-08T18:19:28.995Z,43.37
2018-08-08T18:21:59.290Z,42.93
2018-08-08T18:24:30.815Z,43.97
2018-08-08T18:27:07.501Z,43.60
2018-08-08T18:29:40.709Z,43.43
2018-08-08T18:32:11.517Z,43.20
2018-08-08T18:34:44.027Z,44.13
2018-08-08T18:37:15.791Z,42.70
2018-08-08T18:39:47.632Z,43.87
2018-08-08T18:42:18.382Z,42.90
2018-08-08T18:44:50.084Z,42.30
2018-08-08T18:47:20.687Z,42.40
2018-08-08T18:49:52.368Z,42.73
2018-08-08T18:52:23.545Z,44.33
2018-08-08T18:54:53.681Z,42.53
2018-08-08T18:57:23.978Z,42.57
2018-08-08T18:59:54.269Z,41.73
2018-08-08T19:02:26.649Z,42.37
2018-08-08T19:04:58.709Z,42.43
2018-08-08T19:07:30.131Z,42.60
2018-08-08T19:10:01.920Z,42.37
2018-08-08T19:12:34.655Z,41.97
2018-08-08T19:15:07.677Z,42.00
2018-08-08T19:17:37.944Z,42.73
2018-08-08T19:20:08.139Z,42.40
2018-08-08T19:22:41.475Z,41.13
2018-08-08T19:25:15.309Z,41.70
2018-08-08T19:27:47.079Z,41.53
2018-08-08T19:30:19.445Z,41.80
2018-08-08T19:32:51.850Z,42.47
2018-08-08T19:35:24.035Z,42.03
2018-08-08T19:37:54.024Z,41.90
2018-08-08T19:40:26.155Z,42.13
2018-08-08T19:42:58.911Z,42.13
2018-08-08T19:45:29.966Z,42.67
2018-08-08T19:48:02.398Z,42.60
2018-08-08T19:50:32.514Z,42.27
2018-08-08T19:53:06.502Z,42.73
2018-08-08T19:55:37.661Z,42.83
2018-08-08T19:58:10.809Z,42.30
2018-08-08T20:00:41.701Z,41.90
2018-08-08T20:03:12.807Z,42.97
2018-08-08T20:05:49.514Z,42.57
2018-08-08T20:08:28.810Z,43.07
2018-08-08T20:10:59.458Z,41.93
2018-08-08T20:13:30.314Z,42.77
2018-08-08T20:16:02.658Z,41.63
2018-08-08T20:18:33.784Z,42.50
2018-08-08T20:21:06.613Z,42.93
2018-08-08T20:23:37.715Z,42.13
2018-08-08T20:26:08.833Z,41.77
2018-08-08T20:28:39.638Z,42.23
2018-08-08T20:31:10.103Z,42.40
2018-08-08T20:33:40.961Z,42.73
2018-08-08T20:36:12.466Z,41.20
2018-08-08T20:38:44.062Z,41.77
2018-08-08T20:41:16.369Z,41.47
2018-08-08T20:43:48.946Z,42.20
2018-08-08T20:46:19.927Z,42.40
2018-08-08T20:48:54.291Z,41.87
2018-08-08T20:51:27.523Z,41.77
2018-08-08T20:53:59.310Z,42.00
2018-08-08T20:56:30.705Z,42.33
2018-08-08T20:59:02.892Z,42.07
2018-08-08T21:01:36.836Z,42.40
2018-08-08T21:04:10.071Z,42.77
2018-08-08T21:06:42.357Z,41.90
2018-08-08T21:09:15.260Z,42.13
2018-08-08T21:11:46.874Z,42.23
2018-08-08T21:14:19.749Z,42.27
2018-08-08T21:16:50.138Z,41.70
2018-08-08T21:19:21.228Z,42.33
2018-08-08T21:21:52.031Z,42.23
2018-08-08T21:24:23.177Z,42.73
2018-08-08T21:26:55.249Z,42.13
2018-08-08T21:29:28.802Z,41.87
2018-08-08T21:31:59.376Z,42.07
2018-08-08T21:34:31.172Z,42.70
2018-08-08T21:37:04.028Z,43.00
2018-08-08T21:39:36.222Z,42.43
2018-08-08T21:42:08.064Z,42.83
2018-08-08T21:44:46.343Z,42.73
2018-08-08T21:47:17.622Z,42.83
2018-08-08T21:49:49.859Z,42.97
2018-08-08T21:52:20.462Z,43.03
2018-08-08T21:55:09.176Z,43.47
2018-08-08T21:57:57.011Z,43.43
2018-08-08T22:02:48.873Z,43.43
2018-08-08T22:05:36.349Z,44.47
2018-08-08T22:08:22.976Z,43.97
2018-08-08T22:11:18.153Z,42.93
2018-08-08T22:14:06.248Z,43.03
2018-08-08T22:16:53.404Z,42.40
2018-08-08T22:19:35.950Z,42.57
2018-08-08T22:22:07.559Z,42.27
2018-08-08T22:24:38.159Z,41.97
2018-08-08T22:27:09.040Z,42.17
2018-08-08T22:29:39.979Z,42.60
2018-08-08T22:32:12.122Z,43.43
2018-08-08T22:34:42.421Z,42.47
2018-08-08T22:37:15.332Z,42.13
2018-08-08T22:39:46.703Z,42.23
2018-08-08T22:42:17.669Z,42.33
2018-08-08T22:44:50.096Z,43.13
2018-08-08T22:47:20.882Z,42.33
2018-08-08T22:49:51.738Z,42.40
2018-08-08T22:52:24.202Z,41.77
2018-08-08T22:54:56.049Z,41.73
2018-08-08T22:57:26.882Z,42.20
2018-08-08T22:59:57.494Z,42.23
2018-08-08T23:02:29.551Z,41.50
2018-08-08T23:05:00.620Z,42.13
2018-08-08T23:07:31.973Z,41.70
2018-08-08T23:10:10.082Z,42.20
2018-08-08T23:12:41.630Z,40.87
2018-08-08T23:15:14.006Z,41.70
2018-08-08T23:17:45.535Z,40.67
2018-08-08T23:20:18.076Z,41.77
2018-08-08T23:22:56.652Z,42.50
2018-08-08T23:25:27.973Z,41.40
2018-08-08T23:28:00.578Z,41.40
2018-08-08T23:30:33.519Z,40.90
2018-08-08T23:33:06.553Z,41.23
2018-08-08T23:35:38.055Z,41.37
2018-08-08T23:38:11.518Z,40.83
2018-08-08T23:40:47.002Z,40.90
2018-08-08T23:43:23.579Z,41.53
2018-08-08T23:45:55.179Z,41.27
2018-08-08T23:48:26.578Z,40.43
2018-08-08T23:50:56.925Z,39.43
2018-08-08T23:53:27.863Z,40.70
2018-08-08T23:55:59.385Z,41.23
2018-08-08T23:58:33.419Z,41.63
